createdAt,value
2023-03-13T00:01:25.385Z,2.63
2023-03-13T00:03:55.645Z,2.60
2023-03-13T00:06:29.012Z,2.63
2023-03-13T00:08:56.166Z,2.83
2023-03-13T00:11:23.053Z,2.23
2023-03-13T00:13:55.456Z,2.73
2023-03-13T00:16:23.275Z,2.37
2023-03-13T00:18:52.327Z,2.47
2023-03-13T00:21:21.947Z,2.80
2023-03-13T00:23:49.392Z,2.10
2023-03-13T00:26:18.718Z,2.87
2023-03-13T00:28:46.275Z,2.63
2023-03-13T00:31:21.791Z,2.40
2023-03-13T00:33:52.137Z,2.60
2023-03-13T00:36:23.433Z,2.30
2023-03-13T00:38:50.963Z,2.63
2023-03-13T00:41:26.384Z,2.80
2023-03-13T00:43:53.534Z,2.30
2023-03-13T00:46:23.149Z,2.37
2023-03-13T00:48:50.344Z,2.70
2023-03-13T00:51:18.653Z,2.80
2023-03-13T00:53:46.029Z,2.70
2023-03-13T00:56:15.474Z,2.93
2023-03-13T00:58:44.320Z,3.00
2023-03-13T01:01:15.571Z,2.77
2023-03-13T01:03:45.892Z,2.90
2023-03-13T01:06:15.874Z,2.70
2023-03-13T01:08:42.899Z,2.70
2023-03-13T01:11:12.749Z,2.80
2023-03-13T01:13:40.312Z,2.83
2023-03-13T01:16:10.999Z,3.07
2023-03-13T01:18:40.081Z,2.13
2023-03-13T01:21:07.561Z,2.70
2023-03-13T01:23:35.263Z,2.60
2023-03-13T01:26:05.255Z,2.70
2023-03-13T01:28:32.561Z,2.43
2023-03-13T01:31:01.100Z,2.40
2023-03-13T01:33:28.253Z,2.47
2023-03-13T01:36:02.293Z,3.00
2023-03-13T01:38:29.349Z,3.03
2023-03-13T01:40:56.325Z,2.63
2023-03-13T01:43:29.298Z,2.47
2023-03-13T01:46:11.158Z,2.67
2023-03-13T01:48:47.300Z,2.67
2023-03-13T01:51:48.216Z,2.10
2023-03-13T01:54:26.503Z,2.20
2023-03-13T01:57:02.202Z,2.40
2023-03-13T01:59:34.048Z,1.90
2023-03-13T02:02:03.666Z,2.23
2023-03-13T02:04:44.102Z,2.47
2023-03-13T02:07:15.845Z,2.20
2023-03-13T02:09:48.724Z,2.70
2023-03-13T02:12:31.268Z,2.10
2023-03-13T02:15:01.675Z,2.00
2023-03-13T02:17:30.150Z,2.17
2023-03-13T02:19:57.403Z,2.20
2023-03-13T02:22:50.761Z,2.13
2023-03-13T02:25:24.580Z,2.50
2023-03-13T02:27:56.027Z,2.13
2023-03-13T02:30:23.576Z,2.17
2023-03-13T02:32:51.726Z,2.20
2023-03-13T02:35:21.501Z,2.20
2023-03-13T02:37:52.399Z,2.60
2023-03-13T02:40:26.024Z,2.43
2023-03-13T02:42:56.435Z,2.10
2023-03-13T02:45:23.888Z,2.20
2023-03-13T02:47:51.349Z,2.40
2023-03-13T02:50:18.917Z,2.10
2023-03-13T02:52:50.040Z,2.10
2023-03-13T02:55:24.677Z,2.27
2023-03-13T02:57:51.938Z,2.50
2023-03-13T03:00:19.776Z,2.07
2023-03-13T03:02:47.038Z,2.67
2023-03-13T03:05:14.304Z,2.57
2023-03-13T03:07:41.540Z,2.50
2023-03-13T03:10:09.731Z,2.33
2023-03-13T03:12:37.159Z,2.03
2023-03-13T03:15:07.679Z,2.27
2023-03-13T03:17:39.325Z,2.43
2023-03-13T03:20:12.387Z,2.27
2023-03-13T03:22:41.065Z,2.20
2023-03-13T03:25:09.831Z,2.00
2023-03-13T03:27:37.854Z,2.60
2023-03-13T03:30:06.470Z,2.10
2023-03-13T03:32:33.615Z,2.60
2023-03-13T03:35:01.108Z,2.30
2023-03-13T03:37:28.228Z,2.33
2023-03-13T03:39:55.495Z,2.40
2023-03-13T03:42:22.746Z,2.00
2023-03-13T03:44:49.980Z,2.30
2023-03-13T03:47:17.280Z,2.43
2023-03-13T03:49:44.610Z,2.37
2023-03-13T03:52:11.699Z,2.13
2023-03-13T03:54:38.984Z,2.77
2023-03-13T03:57:06.480Z,2.50
2023-03-13T03:59:33.468Z,2.47
2023-03-13T04:02:00.303Z,2.13
2023-03-13T04:04:27.936Z,2.30
2023-03-13T04:06:54.766Z,2.63
2023-03-13T04:09:21.989Z,2.90
2023-03-13T04:11:48.837Z,2.50
2023-03-13T04:14:16.082Z,2.23
2023-03-13T04:16:43.257Z,3.53
2023-03-13T04:19:10.417Z,4.57
2023-03-13T04:21:37.305Z,3.47
2023-03-13T04:24:04.407Z,3.70
2023-03-13T04:26:31.272Z,5.27
2023-03-13T04:28:58.304Z,5.17
2023-03-13T04:31:25.350Z,4.20
2023-03-13T04:33:52.458Z,3.10
2023-03-13T04:36:19.276Z,2.40
2023-03-13T04:38:46.360Z,2.30
2023-03-13T04:41:13.337Z,2.20
2023-03-13T04:43:40.147Z,2.17
2023-03-13T04:46:07.052Z,2.33
2023-03-13T04:48:33.972Z,2.10
2023-03-13T04:51:00.797Z,2.30
2023-03-13T04:53:27.789Z,2.10
2023-03-13T04:55:54.888Z,2.30
2023-03-13T04:58:21.903Z,2.63
2023-03-13T05:00:48.999Z,3.37
2023-03-13T05:03:15.808Z,2.90
2023-03-13T05:05:42.805Z,2.90
2023-03-13T05:08:11.068Z,2.40
2023-03-13T05:10:42.823Z,2.50
2023-03-13T05:13:09.901Z,2.30
2023-03-13T05:15:36.982Z,2.40
2023-03-13T05:18:04.050Z,2.80
2023-03-13T05:20:31.150Z,2.80
2023-03-13T05:22:58.087Z,2.53
2023-03-13T05:25:25.009Z,3.10
2023-03-13T05:27:51.859Z,3.10
2023-03-13T05:30:19.937Z,2.80
2023-03-13T05:32:47.028Z,2.97
2023-03-13T05:35:14.203Z,2.30
2023-03-13T05:37:47.925Z,2.60
2023-03-13T05:40:15.366Z,3.03
2023-03-13T05:42:42.851Z,2.33
2023-03-13T05:45:10.406Z,3.10
2023-03-13T05:47:38.909Z,2.53
2023-03-13T05:50:07.355Z,3.60
2023-03-13T05:52:35.033Z,6.50
2023-03-13T05:55:02.131Z,4.93
2023-03-13T05:57:29.449Z,3.97
2023-03-13T05:59:56.385Z,2.93
2023-03-13T06:02:23.323Z,3.00
2023-03-13T06:04:50.494Z,3.30
2023-03-13T06:07:17.933Z,2.93
2023-03-13T06:09:45.047Z,2.57
2023-03-13T06:12:13.962Z,2.80
2023-03-13T06:14:40.911Z,2.77
2023-03-13T06:17:09.580Z,2.87
2023-03-13T06:19:36.708Z,3.00
2023-03-13T06:22:03.693Z,2.80
2023-03-13T06:24:30.729Z,2.90
2023-03-13T06:26:57.792Z,2.50
2023-03-13T06:29:25.244Z,2.40
2023-03-13T06:31:52.721Z,2.70
2023-03-13T06:34:19.956Z,2.97
2023-03-13T06:36:46.797Z,3.00
2023-03-13T06:39:13.714Z,3.10
2023-03-13T06:41:40.748Z,2.97
2023-03-13T06:44:07.818Z,3.13
2023-03-13T06:46:40.357Z,2.73
2023-03-13T06:49:07.537Z,2.50
2023-03-13T06:51:34.573Z,2.77
2023-03-13T06:54:04.312Z,3.30
2023-03-13T06:56:31.265Z,3.00
2023-03-13T06:58:59.981Z,2.73
2023-03-13T07:01:27.445Z,3.30
2023-03-13T07:03:54.341Z,3.00
2023-03-13T07:06:21.405Z,3.00
2023-03-13T07:08:48.752Z,3.27
2023-03-13T07:11:16.261Z,3.27
2023-03-13T07:13:43.379Z,2.90
2023-03-13T07:16:13.382Z,2.93
2023-03-13T07:18:45.112Z,2.60
2023-03-13T07:21:12.722Z,2.70
2023-03-13T07:23:40.246Z,2.63
2023-03-13T07:26:38.539Z,2.50
2023-03-13T07:29:11.502Z,2.27
2023-03-13T07:31:39.560Z,2.47
2023-03-13T07:34:06.771Z,2.40
2023-03-13T07:36:41.929Z,2.20
2023-03-13T07:39:11.818Z,2.30
2023-03-13T07:41:40.097Z,2.27
2023-03-13T07:44:07.110Z,2.50
2023-03-13T07:46:33.991Z,2.13
2023-03-13T07:49:00.720Z,2.00
2023-03-13T07:51:42.198Z,2.17
2023-03-13T07:54:10.390Z,2.00
2023-03-13T07:56:37.115Z,1.90
2023-03-13T07:59:03.706Z,2.17
2023-03-13T08:01:31.258Z,2.03
2023-03-13T08:04:01.233Z,2.10
2023-03-13T08:06:33.671Z,2.07
2023-03-13T08:09:00.681Z,2.07
2023-03-13T08:11:29.464Z,2.00
2023-03-13T08:13:57.247Z,1.93
2023-03-13T08:16:29.503Z,1.70
2023-03-13T08:18:57.794Z,1.70
2023-03-13T08:21:29.462Z,2.00
2023-03-13T08:23:58.205Z,1.73
2023-03-13T08:26:27.172Z,1.90
2023-03-13T08:28:56.490Z,1.63
2023-03-13T08:31:29.059Z,1.50
2023-03-13T08:33:55.668Z,1.57
2023-03-13T08:36:31.394Z,1.30
2023-03-13T08:39:00.761Z,1.30
2023-03-13T08:41:30.499Z,1.50
2023-03-13T08:43:58.084Z,1.57
2023-03-13T08:46:25.629Z,1.50
2023-03-13T08:48:54.051Z,1.30
2023-03-13T08:51:26.027Z,1.60
2023-03-13T08:53:53.840Z,1.30
2023-03-13T08:56:22.568Z,1.30
2023-03-13T08:58:50.371Z,1.27
2023-03-13T09:01:17.884Z,1.43
2023-03-13T09:03:44.681Z,1.20
2023-03-13T09:06:11.733Z,1.20
2023-03-13T09:08:39.786Z,1.23
2023-03-13T09:11:12.701Z,1.40
2023-03-13T09:13:42.520Z,1.60
2023-03-13T09:16:12.467Z,1.20
2023-03-13T09:18:39.744Z,1.00
2023-03-13T09:21:08.887Z,1.37
2023-03-13T09:23:35.976Z,1.20
2023-03-13T09:26:02.743Z,2.40
2023-03-13T09:28:29.427Z,1.40
2023-03-13T09:30:56.265Z,1.10
2023-03-13T09:33:24.294Z,1.53
2023-03-13T09:35:51.478Z,1.10
2023-03-13T09:38:20.499Z,1.23
2023-03-13T09:41:04.915Z,1.30
2023-03-13T09:43:46.395Z,1.30
2023-03-13T09:46:39.706Z,1.20
2023-03-13T09:49:23.044Z,1.43
2023-03-13T09:51:54.955Z,1.47
2023-03-13T09:54:39.838Z,1.60
2023-03-13T09:57:24.209Z,1.53
2023-03-13T09:59:59.092Z,1.53
2023-03-13T10:02:34.884Z,1.27
2023-03-13T10:05:10.311Z,1.30
2023-03-13T10:07:37.351Z,1.30
2023-03-13T10:10:08.039Z,1.20
2023-03-13T10:12:44.838Z,1.67
2023-03-13T10:15:45.345Z,1.63
2023-03-13T10:18:21.832Z,1.40
2023-03-13T10:21:00.481Z,1.40
2023-03-13T10:23:51.831Z,1.30
2023-03-13T10:26:24.207Z,1.40
2023-03-13T10:28:51.989Z,1.57
2023-03-13T10:31:31.915Z,1.60
2023-03-13T10:34:10.199Z,1.00
2023-03-13T10:36:54.950Z,1.17
2023-03-13T10:39:23.638Z,1.17
2023-03-13T10:41:56.491Z,1.13
2023-03-13T10:44:30.139Z,1.20
2023-03-13T10:47:01.562Z,1.40
2023-03-13T10:49:29.623Z,1.30
2023-03-13T10:52:04.458Z,1.07
2023-03-13T10:54:37.787Z,1.33
2023-03-13T10:57:28.930Z,1.30
2023-03-13T10:59:56.315Z,1.00
2023-03-13T11:02:28.112Z,1.10
2023-03-13T11:04:55.769Z,1.00
2023-03-13T11:07:25.362Z,1.33
2023-03-13T11:10:03.148Z,1.27
2023-03-13T11:12:35.102Z,1.17
2023-03-13T11:15:06.381Z,1.13
2023-03-13T11:17:38.846Z,1.40
2023-03-13T11:20:27.581Z,0.90
2023-03-13T11:23:18.651Z,1.10
2023-03-13T11:26:06.905Z,1.43
2023-03-13T11:28:39.330Z,1.17
2023-03-13T11:31:11.538Z,1.07
2023-03-13T11:34:13.510Z,1.20
2023-03-13T11:36:49.126Z,1.30
2023-03-13T11:39:37.388Z,1.40
2023-03-13T11:42:25.058Z,1.40
2023-03-13T11:45:06.970Z,1.30
2023-03-13T11:47:55.064Z,1.10
2023-03-13T11:50:39.769Z,1.17
2023-03-13T11:53:39.402Z,1.40
2023-03-13T11:56:22.128Z,1.50
2023-03-13T11:59:17.477Z,1.50
2023-03-13T12:01:53.009Z,1.27
2023-03-13T12:04:32.288Z,1.80
2023-03-13T12:07:17.364Z,1.20
2023-03-13T12:09:49.826Z,1.30
2023-03-13T12:12:36.047Z,1.40
2023-03-13T12:15:15.724Z,1.20
2023-03-13T12:18:00.756Z,1.27
2023-03-13T12:20:47.548Z,1.40
2023-03-13T12:23:18.972Z,1.57
2023-03-13T12:26:07.309Z,1.17
2023-03-13T12:29:08.955Z,1.20
2023-03-13T12:31:44.914Z,1.60
2023-03-13T12:34:14.934Z,1.67
2023-03-13T12:37:16.609Z,1.20
2023-03-13T12:39:52.452Z,1.63
2023-03-13T12:42:44.990Z,1.30
2023-03-13T12:45:19.888Z,1.40
2023-03-13T12:48:01.854Z,1.43
2023-03-13T12:50:45.559Z,1.60
2023-03-13T12:53:14.931Z,1.90
2023-03-13T12:56:03.501Z,1.50
2023-03-13T12:58:45.361Z,1.60
2023-03-13T13:01:35.929Z,1.60
2023-03-13T13:04:11.556Z,1.73
2023-03-13T13:07:00.745Z,1.17
2023-03-13T13:09:30.073Z,1.67
2023-03-13T13:12:00.430Z,1.20
2023-03-13T13:14:26.995Z,1.70
2023-03-13T13:17:16.650Z,1.63
2023-03-13T13:19:47.870Z,1.93
2023-03-13T13:22:39.573Z,1.80
2023-03-13T13:25:18.205Z,1.47
2023-03-13T13:27:46.961Z,1.37
2023-03-13T13:30:32.264Z,1.57
2023-03-13T13:33:20.555Z,1.40
2023-03-13T13:36:08.100Z,1.80
2023-03-13T13:38:44.278Z,1.50
2023-03-13T13:41:13.615Z,1.63
2023-03-13T13:43:45.602Z,1.60
2023-03-13T13:46:29.330Z,1.50
2023-03-13T13:49:05.777Z,1.60
2023-03-13T13:51:37.306Z,1.60
2023-03-13T13:54:42.363Z,1.50
2023-03-13T13:57:16.664Z,1.10
2023-03-13T13:59:45.684Z,1.47
2023-03-13T14:02:16.976Z,1.47
2023-03-13T14:04:50.565Z,1.60
2023-03-13T14:07:23.828Z,1.63
2023-03-13T14:09:59.980Z,1.20
2023-03-13T14:12:39.329Z,1.30
2023-03-13T14:15:14.838Z,1.50
2023-03-13T14:17:57.379Z,1.40
2023-03-13T14:20:29.207Z,1.67
2023-03-13T14:23:03.759Z,1.53
2023-03-13T14:25:47.526Z,1.80
2023-03-13T14:28:25.076Z,1.40
2023-03-13T14:30:54.601Z,1.70
2023-03-13T14:33:28.304Z,1.33
2023-03-13T14:36:01.410Z,1.30
2023-03-13T14:38:34.043Z,1.73
2023-03-13T14:41:30.898Z,1.50
2023-03-13T14:44:41.743Z,1.30
2023-03-13T14:47:25.834Z,1.60
2023-03-13T14:50:05.407Z,1.50
2023-03-13T14:52:36.253Z,1.80
2023-03-13T14:55:07.071Z,1.60
2023-03-13T14:57:36.788Z,2.17
2023-03-13T15:00:29.326Z,1.30
2023-03-13T15:03:16.667Z,2.13
2023-03-13T15:05:44.358Z,1.63
2023-03-13T15:08:27.301Z,1.50
2023-03-13T15:11:17.383Z,1.73
2023-03-13T15:14:02.252Z,1.77
2023-03-13T15:16:30.072Z,1.80
2023-03-13T15:21:59.225Z,1.17
2023-03-13T15:28:09.645Z,1.97
2023-03-13T15:30:58.197Z,1.73
2023-03-13T15:34:23.921Z,1.60
2023-03-13T15:40:49.362Z,1.30
2023-03-13T15:44:10.612Z,1.73
2023-03-13T15:46:37.956Z,1.40
2023-03-13T15:49:27.894Z,1.60
2023-03-13T15:51:57.973Z,1.43
2023-03-13T15:54:57.865Z,1.60
2023-03-13T16:00:27.890Z,1.83
2023-03-13T16:03:09.282Z,1.70
2023-03-13T16:06:05.224Z,2.10
2023-03-13T16:08:38.598Z,1.20
2023-03-13T16:11:08.823Z,1.40
2023-03-13T16:13:59.438Z,1.60
2023-03-13T16:16:36.996Z,1.57
2023-03-13T16:19:17.046Z,1.97
2023-03-13T16:22:25.677Z,2.50
2023-03-13T16:30:20.711Z,1.97
2023-03-13T16:33:04.347Z,3.80
2023-03-13T16:36:03.535Z,3.50
2023-03-13T16:38:52.444Z,2.80
2023-03-13T16:42:10.478Z,1.87
2023-03-13T16:45:10.803Z,3.67
2023-03-13T16:48:13.383Z,2.70
2023-03-13T16:51:48.626Z,1.90
2023-03-13T16:54:49.645Z,2.17
2023-03-13T16:57:55.759Z,3.00
2023-03-13T17:03:12.047Z,3.30
2023-03-13T17:06:08.377Z,2.73
2023-03-13T17:12:24.607Z,2.30
2023-03-13T17:14:54.636Z,2.77
2023-03-13T17:18:04.879Z,2.40
2023-03-13T17:20:56.204Z,2.53
2023-03-13T17:24:23.135Z,2.97
2023-03-13T17:27:02.391Z,3.83
2023-03-13T17:30:05.045Z,3.83
2023-03-13T17:32:54.754Z,4.37
2023-03-13T17:35:49.599Z,3.87
2023-03-13T17:38:29.878Z,2.93
2023-03-13T17:41:13.331Z,4.20
2023-03-13T17:44:46.440Z,4.10
2023-03-13T17:47:36.082Z,2.77
2023-03-13T17:50:04.365Z,2.97
2023-03-13T17:52:36.568Z,2.90
2023-03-13T17:55:03.864Z,3.07
2023-03-13T17:57:30.994Z,3.37
2023-03-13T17:59:58.476Z,4.10
2023-03-13T18:02:28.834Z,5.13
2023-03-13T18:05:06.713Z,5.53
2023-03-13T18:10:22.407Z,4.70
2023-03-13T18:12:52.767Z,5.80
2023-03-13T18:15:34.479Z,3.93
2023-03-13T18:18:07.118Z,5.40
2023-03-13T18:21:00.262Z,7.83
2023-03-13T18:23:39.578Z,4.60
2023-03-13T18:26:19.947Z,3.70
2023-03-13T18:29:31.301Z,5.60
2023-03-13T18:32:18.185Z,5.70
2023-03-13T18:35:01.233Z,7.83
2023-03-13T18:37:40.017Z,8.43
2023-03-13T18:40:49.209Z,7.03
2023-03-13T18:43:34.099Z,3.43
2023-03-13T18:46:14.269Z,3.87
2023-03-13T18:49:01.878Z,2.83
2023-03-13T18:51:30.681Z,3.17
2023-03-13T18:53:58.324Z,2.90
2023-03-13T18:56:28.355Z,2.70
2023-03-13T18:58:59.676Z,3.07
2023-03-13T19:01:29.985Z,3.00
2023-03-13T19:03:59.487Z,4.20
2023-03-13T19:06:30.111Z,4.97
2023-03-13T19:09:03.103Z,5.33
2023-03-13T19:11:31.813Z,3.77
2023-03-13T19:13:59.790Z,3.10
2023-03-13T19:16:57.921Z,3.20
2023-03-13T19:19:28.994Z,2.73
2023-03-13T19:22:02.311Z,2.63
2023-03-13T19:24:32.336Z,2.70
2023-03-13T19:27:14.977Z,2.27
2023-03-13T19:29:41.939Z,2.60
2023-03-13T19:32:14.780Z,2.57
2023-03-13T19:34:45.420Z,2.30
2023-03-13T19:37:15.513Z,2.20
2023-03-13T19:39:43.370Z,2.00
2023-03-13T19:42:10.490Z,2.10
2023-03-13T19:44:38.239Z,1.77
2023-03-13T19:47:05.259Z,1.80
2023-03-13T19:49:32.157Z,2.00
2023-03-13T19:52:00.293Z,2.00
2023-03-13T19:54:27.548Z,1.90
2023-03-13T19:56:54.555Z,1.70
2023-03-13T19:59:23.757Z,1.80
2023-03-13T20:01:50.878Z,1.67
2023-03-13T20:04:28.180Z,1.83
2023-03-13T20:06:55.433Z,2.30
2023-03-13T20:09:23.607Z,1.90
2023-03-13T20:11:59.232Z,2.50
2023-03-13T20:14:26.278Z,2.70
2023-03-13T20:16:56.095Z,2.90
2023-03-13T20:19:24.446Z,3.17
2023-03-13T20:21:52.419Z,3.40
2023-03-13T20:24:19.425Z,3.13
2023-03-13T20:26:46.367Z,2.97
2023-03-13T20:29:13.212Z,2.70
2023-03-13T20:31:40.132Z,2.40
2023-03-13T20:34:07.189Z,2.40
2023-03-13T20:36:34.225Z,2.40
2023-03-13T20:39:01.065Z,2.70
2023-03-13T20:41:31.383Z,3.07
2023-03-13T20:43:58.203Z,2.70
2023-03-13T20:46:25.616Z,2.60
2023-03-13T20:48:52.627Z,3.07
2023-03-13T20:51:19.520Z,3.30
2023-03-13T20:53:46.271Z,3.13
2023-03-13T20:56:13.170Z,3.63
2023-03-13T20:58:39.875Z,4.47
2023-03-13T21:01:07.775Z,3.10
2023-03-13T21:03:36.037Z,2.80
2023-03-13T21:06:11.031Z,2.77
2023-03-13T21:08:38.924Z,2.63
2023-03-13T21:11:21.201Z,3.10
2023-03-13T21:13:48.720Z,2.10
2023-03-13T21:16:16.722Z,2.30
2023-03-13T21:18:43.626Z,2.70
2023-03-13T21:21:15.268Z,2.40
2023-03-13T21:23:42.098Z,2.53
2023-03-13T21:26:09.252Z,2.50
2023-03-13T21:28:36.339Z,2.00
2023-03-13T21:31:18.042Z,2.23
2023-03-13T21:33:46.237Z,1.90
2023-03-13T21:36:15.444Z,1.90
2023-03-13T21:38:42.457Z,2.30
2023-03-13T21:41:11.724Z,1.70
2023-03-13T21:43:41.684Z,2.20
2023-03-13T21:46:13.931Z,1.77
2023-03-13T21:48:42.347Z,1.43
2023-03-13T21:51:09.835Z,1.23
2023-03-13T21:53:37.143Z,1.57
2023-03-13T21:56:04.678Z,1.17
2023-03-13T21:58:31.340Z,1.50
2023-03-13T22:00:58.570Z,1.03
2023-03-13T22:03:28.759Z,1.00
2023-03-13T22:05:55.720Z,1.00
2023-03-13T22:08:22.399Z,1.10
2023-03-13T22:10:51.181Z,1.20
2023-03-13T22:13:18.300Z,1.00
2023-03-13T22:15:46.624Z,1.03
2023-03-13T22:18:17.181Z,0.90
2023-03-13T22:20:44.030Z,1.10
2023-03-13T22:23:14.903Z,0.80
2023-03-13T22:25:42.629Z,0.70
2023-03-13T22:28:10.973Z,0.70
2023-03-13T22:30:38.692Z,1.20
2023-03-13T22:33:06.939Z,1.00
2023-03-13T22:35:34.813Z,0.93
2023-03-13T22:38:01.583Z,0.70
2023-03-13T22:40:28.345Z,0.60
2023-03-13T22:42:55.007Z,0.80
2023-03-13T22:45:22.604Z,0.90
2023-03-13T22:47:49.587Z,0.67
2023-03-13T22:50:17.384Z,0.70
2023-03-13T22:52:44.604Z,0.80
2023-03-13T22:55:11.348Z,0.80
2023-03-13T22:57:38.001Z,0.90
2023-03-13T23:00:07.236Z,0.90
2023-03-13T23:02:33.930Z,0.80
2023-03-13T23:05:01.436Z,0.80
2023-03-13T23:07:29.625Z,1.10
2023-03-13T23:09:57.693Z,0.87
2023-03-13T23:12:25.001Z,0.80
2023-03-13T23:14:52.588Z,0.80
2023-03-13T23:17:19.512Z,0.90
2023-03-13T23:19:46.424Z,0.87
2023-03-13T23:22:17.862Z,0.90
2023-03-13T23:24:44.804Z,0.93
2023-03-13T23:27:11.646Z,1.20
2023-03-13T23:29:38.313Z,0.80
2023-03-13T23:32:05.141Z,0.73
2023-03-13T23:34:31.900Z,0.73
2023-03-13T23:36:59.220Z,0.80
2023-03-13T23:39:26.066Z,1.10
2023-03-13T23:41:52.832Z,1.00
2023-03-13T23:44:19.704Z,0.90
2023-03-13T23:46:46.734Z,0.87
2023-03-13T23:49:13.549Z,0.83
2023-03-13T23:51:40.376Z,1.00
2023-03-13T23:54:07.566Z,1.00
2023-03-13T23:56:34.397Z,1.47
2023-03-13T23:59:01.176Z,1.00
